Tukiboshimaru — JI3695 — position and weather

sailwx.info

Track history (hours):
 
Tides and Currents Weather Stations Pressure Air Temp Water Temp Dewpoint Dewpoint Depression Visibility Wind Speed Wind Dir Waves Ship Positions

Tukiboshimaru

Last reported at 2018-Feb-19 21:00 UTC. Time now 2018-Feb-19 21:17 UTC.
Position N 34°04' E 132°38'.

Length 84 m.

Type: Ship. MMSI: 431301596.

Date/timePositionNaut miles runAvg speedWind from/ knotsBaromVisibWave heightAir tempDewpointWater temp
2018-Feb-19 21:00N 34°04' E 132°38'10411.8
2018-Feb-19 12:12N 34°31' E 134°40'212.3
2018-Feb-19 12:00N 34°32' E 134°42'612.4
2018-Feb-19 11:29N 34°35' E 134°50'612.7
2018-Feb-19 11:00N 34°37' E 134°57'510.5
2018-Feb-19 10:30N 34°36' E 135°03'611.8
2018-Feb-19 10:00N 34°36' E 135°10'611.9
2018-Feb-19 09:30N 34°36' E 135°17'611.6
2018-Feb-19 09:00N 34°36' E 135°24'3 5.1
2018-Feb-19 08:25N 34°34' E 135°27'0 0.0
2018-Feb-19 07:55N 34°34' E 135°27'0 0.0
2018-Feb-19 07:28N 34°34' E 135°27'0 0.0
2018-Feb-19 06:58N 34°34' E 135°27'0 0.0
2018-Feb-19 06:28N 34°34' E 135°27'0 0.0
2018-Feb-19 05:55N 34°34' E 135°27'0 0.0
2018-Feb-19 05:25N 34°34' E 135°27'0 0.0
2018-Feb-19 04:55N 34°34' E 135°27'0 0.0
2018-Feb-19 04:28N 34°34' E 135°27'0 0.0
2018-Feb-19 03:58N 34°34' E 135°27'0 0.0
2018-Feb-19 03:28N 34°34' E 135°27'0 0.0
2018-Feb-19 02:58N 34°34' E 135°27'0 0.0
2018-Feb-19 02:28N 34°34' E 135°27'0 0.0
2018-Feb-19 01:58N 34°34' E 135°27'0 0.0
2018-Feb-19 01:28N 34°34' E 135°27'0 0.0
2018-Feb-19 00:58N 34°34' E 135°27'0 0.0
2018-Feb-19 00:28N 34°34' E 135°27'3 6.1
2018-Feb-19 00:00N 34°36' E 135°24'1 2.4
2018-Feb-18 23:30N 34°36' E 135°23'0 0.1
2018-Feb-18 23:00N 34°36' E 135°23'1 2.6
2018-Feb-18 22:30N 34°36' E 135°21'611.3
2018-Feb-18 22:00N 34°35' E 135°15'611.8
2018-Feb-18 21:30N 34°35' E 135°08'613.0
2018-Feb-18 21:00N 34°37' E 135°00'713.9
2018-Feb-18 20:31N 34°35' E 134°52'712.8
2018-Feb-18 20:00N 34°32' E 134°45'612.1
2018-Feb-18 19:30N 34°30' E 134°38'611.8
2018-Feb-18 19:00N 34°28' E 134°32'9511.6
2018-Feb-18 10:53N 34°05' E 132°41'11 5.6
2018-Feb-18 08:53N 34°12' E 132°30'2 6.4
2018-Feb-18 08:30N 34°14' E 132°32'0 0.0
2018-Feb-18 07:59N 34°14' E 132°32'0 0.0
2018-Feb-18 07:29N 34°14' E 132°32'0 0.0
2018-Feb-18 06:59N 34°14' E 132°32'0 0.0
2018-Feb-18 06:26N 34°14' E 132°32'0 0.0
2018-Feb-18 05:59N 34°14' E 132°32'0 0.0
2018-Feb-18 05:26N 34°14' E 132°32'0 0.0
2018-Feb-18 04:59N 34°14' E 132°32'0 0.0
2018-Feb-18 04:29N 34°14' E 132°32'0 0.0
2018-Feb-18 03:59N 34°14' E 132°32'0 0.0
2018-Feb-18 03:29N 34°14' E 132°32'0 0.0
2018-Feb-18 02:59N 34°14' E 132°32'0 0.0
2018-Feb-18 02:29N 34°14' E 132°32'0 0.0
2018-Feb-18 01:59N 34°14' E 132°32'0 0.0
2018-Feb-18 01:29N 34°14' E 132°32'0 0.0
2018-Feb-18 00:59N 34°14' E 132°32'0 0.0
2018-Feb-18 00:29N 34°14' E 132°32'0 0.0
2018-Feb-17 23:59N 34°14' E 132°32'0 0.0
2018-Feb-17 23:28N 34°14' E 132°32'2 5.2
2018-Feb-17 22:59N 34°12' E 132°30'710.5
2018-Feb-17 22:16N 34°05' E 132°27'512.5
2018-Feb-17 21:54N 34°02' E 132°31'511.8
2018-Feb-17 21:30N 34°04' E 132°36'10711.3
2018-Feb-17 12:02N 34°31' E 134°42'011.4
2018-Feb-17 12:00N 34°32' E 134°42'712.4
2018-Feb-17 11:25N 34°34' E 134°50'613.3
2018-Feb-17 10:59N 34°37' E 134°56'611.8
2018-Feb-17 10:30N 34°36' E 135°03'611.8
2018-Feb-17 10:00N 34°36' E 135°11'511.1
2018-Feb-17 09:30N 34°36' E 135°17'611.1
2018-Feb-17 09:00N 34°36' E 135°24'3 6.4
2018-Feb-17 08:29N 34°34' E 135°27'0 0.0
2018-Feb-17 07:58N 34°34' E 135°27'0 0.0
2018-Feb-17 07:28N 34°34' E 135°27'0 0.0
2018-Feb-17 06:58N 34°34' E 135°27'0 0.0
2018-Feb-17 06:28N 34°34' E 135°27'0 0.0
2018-Feb-17 05:58N 34°34' E 135°27'0 0.0
2018-Feb-17 05:28N 34°34' E 135°27'0 0.0
2018-Feb-17 04:58N 34°34' E 135°27'0 0.0
2018-Feb-17 04:28N 34°34' E 135°27'0 0.0
2018-Feb-17 03:58N 34°34' E 135°27'0 0.0
2018-Feb-17 03:28N 34°34' E 135°27'0 0.0
2018-Feb-17 02:58N 34°34' E 135°27'0 0.0
2018-Feb-17 02:28N 34°34' E 135°27'0 0.0
2018-Feb-17 01:58N 34°34' E 135°27'0 0.0
2018-Feb-17 01:28N 34°34' E 135°27'0 0.2
2018-Feb-17 01:00N 34°34' E 135°27'1 1.3
2018-Feb-17 00:30N 34°35' E 135°27'1 1.6
2018-Feb-17 00:00N 34°35' E 135°26'3 5.7
2018-Feb-16 23:30N 34°36' E 135°23'4 8.3
2018-Feb-16 23:00N 34°36' E 135°18'510.9
2018-Feb-16 22:30N 34°35' E 135°11'611.3
2018-Feb-16 22:00N 34°35' E 135°04'4 8.6
2018-Feb-16 21:30N 34°37' E 134°60'611.3
2018-Feb-16 21:00N 34°35' E 134°53'611.7
2018-Feb-16 20:30N 34°33' E 134°47'611.6
2018-Feb-16 20:00N 34°30' E 134°40'611.6
2018-Feb-16 19:30N 34°28' E 134°34'9611.8
2018-Feb-16 11:19N 34°05' E 132°41'412.1
2018-Feb-16 10:59N 34°04' E 132°36'9 5.8
2018-Feb-16 09:25N 34°11' E 132°30'4 8.9
2018-Feb-16 09:00N 34°14' E 132°32'0 0.3
2018-Feb-16 08:29N 34°14' E 132°32'0 0.0
2018-Feb-16 07:56N 34°14' E 132°32'0 0.0
2018-Feb-16 07:29N 34°14' E 132°32'0 0.0
2018-Feb-16 06:59N 34°14' E 132°32'0 0.0
2018-Feb-16 06:29N 34°14' E 132°32'0 0.0
2018-Feb-16 05:59N 34°14' E 132°32'0 0.0
2018-Feb-16 05:29N 34°14' E 132°32'0 0.0
2018-Feb-16 04:53N 34°14' E 132°32'0 0.0
2018-Feb-16 04:26N 34°14' E 132°32'0 0.0
2018-Feb-16 03:59N 34°14' E 132°32'0 0.0
2018-Feb-16 03:23N 34°14' E 132°32'0 0.0
2018-Feb-16 02:56N 34°14' E 132°32'0 0.0
2018-Feb-16 02:29N 34°14' E 132°32'0 0.0
2018-Feb-16 01:56N 34°14' E 132°32'0 0.0
2018-Feb-16 01:29N 34°14' E 132°32'0 0.0
2018-Feb-16 00:59N 34°14' E 132°32'0 0.0
2018-Feb-16 00:29N 34°14' E 132°32'0 0.0
2018-Feb-15 23:53N 34°14' E 132°32'0 0.0
2018-Feb-15 23:29N 34°14' E 132°32'0 0.0
2018-Feb-15 22:58N 34°14' E 132°32'3 7.1
2018-Feb-15 22:30N 34°11' E 132°30'610.4
2018-Feb-15 21:53N 34°05' E 132°27'512.5
2018-Feb-15 21:30N 34°02' E 132°31'611.7
2018-Feb-15 21:00N 34°04' E 132°38'10611.3
2018-Feb-15 11:36N 34°32' E 134°42'112.7
2018-Feb-15 11:29N 34°32' E 134°44'713.2
2018-Feb-15 10:59N 34°35' E 134°51'713.7
2018-Feb-15 10:30N 34°37' E 134°58'713.0
2018-Feb-15 09:58N 34°36' E 135°07'612.1
2018-Feb-15 09:30N 34°36' E 135°14'612.1
2018-Feb-15 09:00N 34°37' E 135°21'510.2
2018-Feb-15 08:30N 34°35' E 135°27'1 1.3
2018-Feb-15 08:00N 34°34' E 135°27'0 0.0
2018-Feb-15 07:30N 34°34' E 135°27'0 0.0
2018-Feb-15 06:57N 34°34' E 135°27'0 0.0
2018-Feb-15 06:24N 34°34' E 135°27'0 0.0
2018-Feb-15 05:57N 34°34' E 135°27'0 0.0
2018-Feb-15 05:30N 34°34' E 135°27'0 0.0
2018-Feb-15 05:00N 34°34' E 135°27'0 0.0
2018-Feb-15 04:30N 34°34' E 135°27'0 0.0
2018-Feb-15 03:57N 34°34' E 135°27'0 0.0
2018-Feb-15 03:30N 34°34' E 135°27'0 0.0
2018-Feb-15 03:00N 34°34' E 135°27'0 0.0
2018-Feb-15 02:30N 34°34' E 135°27'0 0.0
2018-Feb-15 02:00N 34°34' E 135°27'0 0.0
2018-Feb-15 01:30N 34°34' E 135°27'0 0.0
2018-Feb-15 01:00N 34°34' E 135°27'0 0.0
2018-Feb-15 00:27N 34°34' E 135°27'0 0.1
2018-Feb-14 23:59N 34°34' E 135°27'3 6.3
2018-Feb-14 23:30N 34°36' E 135°24'510.6
2018-Feb-14 23:00N 34°36' E 135°18'611.2
2018-Feb-14 22:30N 34°35' E 135°11'510.8
2018-Feb-14 22:00N 34°35' E 135°04'4 8.1
2018-Feb-14 21:30N 34°37' E 135°00'5 9.0
2018-Feb-14 21:00N 34°35' E 134°55'510.6
2018-Feb-14 20:30N 34°33' E 134°49'611.1
2018-Feb-14 20:00N 34°31' E 134°43'611.3
2018-Feb-14 19:30N 34°29' E 134°37'611.4
2018-Feb-14 19:00N 34°27' E 134°30'611.4
2018-Feb-14 18:30N 34°25' E 134°24'8811.6
2018-Feb-14 10:56N 34°05' E 132°41'10 5.9
2018-Feb-14 09:17N 34°09' E 132°30'310.5
2018-Feb-14 09:00N 34°12' E 132°30'3 5.3
2018-Feb-14 08:28N 34°14' E 132°32'0 0.0
2018-Feb-14 07:58N 34°14' E 132°32'0 0.0
2018-Feb-14 07:28N 34°14' E 132°32'0 0.0
2018-Feb-14 06:58N 34°14' E 132°32'0 0.0
2018-Feb-14 06:25N 34°14' E 132°32'0 0.0
2018-Feb-14 05:58N 34°14' E 132°32'0 0.0
2018-Feb-14 05:28N 34°14' E 132°32'0 0.0
2018-Feb-14 04:58N 34°14' E 132°32'0 0.0
2018-Feb-14 04:25N 34°14' E 132°32'0 0.0
2018-Feb-14 03:58N 34°14' E 132°32'0 0.0
2018-Feb-14 03:28N 34°14' E 132°32'0 0.0
2018-Feb-14 02:58N 34°14' E 132°32'0 0.0
2018-Feb-14 02:25N 34°14' E 132°32'0 0.0
2018-Feb-14 01:58N 34°14' E 132°32'0 0.0
2018-Feb-14 01:28N 34°14' E 132°32'0 0.0
2018-Feb-14 00:58N 34°14' E 132°32'0 0.0
2018-Feb-14 00:28N 34°14' E 132°32'0 0.0
2018-Feb-13 23:55N 34°14' E 132°32'0 0.0
2018-Feb-13 23:28N 34°14' E 132°32'0 0.0
2018-Feb-13 22:52N 34°14' E 132°32'0 0.0
2018-Feb-13 22:28N 34°14' E 132°32'0 0.0
2018-Feb-13 21:58N 34°14' E 132°32'0 0.1
2018-Feb-13 21:30N 34°14' E 132°32'4 8.7
2018-Feb-13 21:00N 34°10' E 132°29'610.2
2018-Feb-13 20:28N 34°05' E 132°27'710.7
2018-Feb-13 19:48N 34°03' E 132°35'311.9
2018-Feb-13 19:30N 34°05' E 132°39'10711.1
2018-Feb-13 09:54N 34°33' E 134°44'511.8
2018-Feb-13 09:30N 34°34' E 134°49'612.1
2018-Feb-13 09:00N 34°37' E 134°56'510.8
2018-Feb-13 08:30N 34°37' E 135°02'611.5
2018-Feb-13 08:00N 34°36' E 135°09'611.2
2018-Feb-13 07:30N 34°37' E 135°16'611.3
2018-Feb-13 07:00N 34°36' E 135°23'4 7.9
2018-Feb-13 06:28N 34°34' E 135°27'0 0.0
2018-Feb-13 05:57N 34°34' E 135°27'0 0.0
2018-Feb-13 05:30N 34°34' E 135°27'0 0.0
2018-Feb-13 05:00N 34°34' E 135°27'0 0.0
2018-Feb-13 04:29N 34°34' E 135°27'0 0.0
2018-Feb-13 04:00N 34°34' E 135°27'0 0.0
2018-Feb-13 03:30N 34°34' E 135°27'0 0.0
2018-Feb-13 03:00N 34°34' E 135°27'0 0.0
2018-Feb-13 02:30N 34°34' E 135°27'0 0.0
2018-Feb-13 02:00N 34°34' E 135°27'0 0.0
2018-Feb-13 01:30N 34°34' E 135°27'0 0.0
2018-Feb-13 00:59N 34°34' E 135°27'0 0.0
2018-Feb-13 00:30N 34°34' E 135°27'0 0.0
2018-Feb-13 00:00N 34°34' E 135°27'0 0.0
2018-Feb-12 23:29N 34°34' E 135°27'0 0.8
2018-Feb-12 23:00N 34°34' E 135°27'4 8.9
2018-Feb-12 22:30N 34°36' E 135°22'611.2
2018-Feb-12 22:00N 34°36' E 135°15'611.2
2018-Feb-12 21:30N 34°35' E 135°09'5 9.8
2018-Feb-12 20:59N 34°36' E 135°03'4 7.8
2018-Feb-12 20:30N 34°37' E 134°58'510.0
2018-Feb-12 20:00N 34°35' E 134°52'610.8
2018-Feb-12 19:29N 34°33' E 134°46'511.0
2018-Feb-12 19:00N 34°30' E 134°40'611.3
2018-Feb-12 18:30N 34°28' E 134°34'9611.5
2018-Feb-12 10:07N 34°05' E 132°41'112.1
2018-Feb-12 10:00N 34°05' E 132°39'11 5.5
2018-Feb-12 08:05N 34°13' E 132°31'1 8.9
2018-Feb-12 07:59N 34°13' E 132°31'1 1.7
2018-Feb-12 07:28N 34°14' E 132°32'0 0.0
2018-Feb-12 06:58N 34°14' E 132°32'0 0.0
2018-Feb-12 06:28N 34°14' E 132°32'0 0.0
2018-Feb-12 05:58N 34°14' E 132°32'0 0.0
2018-Feb-12 05:25N 34°14' E 132°32'0 0.0
2018-Feb-12 04:58N 34°14' E 132°32'0 0.0
2018-Feb-12 04:28N 34°14' E 132°32'0 0.0
2018-Feb-12 03:58N 34°14' E 132°32'0 0.0
2018-Feb-12 03:28N 34°14' E 132°32'0 0.0
2018-Feb-12 02:58N 34°14' E 132°32'0 0.0
2018-Feb-12 02:29N 34°14' E 132°32'0 0.0
2018-Feb-12 01:58N 34°14' E 132°32'0 0.0
2018-Feb-12 01:28N 34°14' E 132°32'0 0.0
2018-Feb-12 00:58N 34°14' E 132°32'0 0.0
2018-Feb-12 00:28N 34°14' E 132°32'0 0.0
2018-Feb-11 23:58N 34°14' E 132°32'0 0.0
2018-Feb-11 23:28N 34°14' E 132°32'0 0.0
2018-Feb-11 22:58N 34°14' E 132°32'0 0.0
2018-Feb-11 22:28N 34°14' E 132°32'0 0.8
2018-Feb-11 21:59N 34°14' E 132°33'1 1.2
2018-Feb-11 21:23N 34°14' E 132°33'0 0.0
2018-Feb-11 20:53N 34°14' E 132°33'0 0.0
2018-Feb-11 20:26N 34°14' E 132°33'0 0.0
2018-Feb-11 19:56N 34°14' E 132°33'0 0.0
2018-Feb-11 19:14N 34°14' E 132°33'0 0.0
2018-Feb-11 18:56N 34°14' E 132°33'0 0.0
2018-Feb-11 18:20N 34°14' E 132°33'0 0.0
2018-Feb-11 17:59N 34°14' E 132°33'0 0.0
2018-Feb-11 17:29N 34°14' E 132°33'0 0.0
2018-Feb-11 16:56N 34°14' E 132°33'0 0.0
2018-Feb-11 16:26N 34°14' E 132°33'0 0.0
2018-Feb-11 15:56N 34°14' E 132°33'0 0.0
2018-Feb-11 15:26N 34°14' E 132°33'0 0.0
2018-Feb-11 14:56N 34°14' E 132°33'0 0.0
2018-Feb-11 14:26N 34°14' E 132°33'0 0.0
2018-Feb-11 13:56N 34°14' E 132°33'0 0.0
2018-Feb-11 13:26N 34°14' E 132°33'0 0.0
2018-Feb-11 12:50N 34°14' E 132°33'0 0.0
2018-Feb-11 12:20N 34°14' E 132°33'0 0.0
2018-Feb-11 11:56N 34°14' E 132°33'0 0.0
2018-Feb-11 11:26N 34°14' E 132°33'0 0.0
2018-Feb-11 10:56N 34°14' E 132°33'0 0.0
2018-Feb-11 10:20N 34°14' E 132°33'0 0.0
2018-Feb-11 09:56N 34°14' E 132°33'0 0.0
2018-Feb-11 09:26N 34°14' E 132°33'0 0.0
2018-Feb-11 08:56N 34°14' E 132°33'0 0.0
2018-Feb-11 08:29N 34°14' E 132°33'0 0.0
2018-Feb-11 07:56N 34°14' E 132°33'0 0.0
2018-Feb-11 05:59N 34°14' E 132°33'0 0.0
2018-Feb-11 05:05N 34°14' E 132°33'0 0.0
2018-Feb-11 02:32N 34°14' E 132°33'0 0.0
2018-Feb-11 02:26N 34°14' E 132°33'0 0.0
2018-Feb-11 01:50N 34°14' E 132°33'0 0.0
2018-Feb-11 01:14N 34°14' E 132°33'0 0.1
2018-Feb-11 00:49N 34°14' E 132°33'2 5.0
2018-Feb-11 00:29N 34°13' E 132°32'510.8
2018-Feb-10 23:59N 34°08' E 132°30'6 7.8
2018-Feb-10 23:10N 34°02' E 132°31'310.9
2018-Feb-10 22:53N 34°03' E 132°35'511.5
2018-Feb-10 22:29N 34°05' E 132°40'10210.4
2018-Feb-10 12:44N 34°31' E 134°39'311.3
2018-Feb-10 12:28N 34°32' E 134°42'511.3
2018-Feb-10 12:00N 34°34' E 134°48'611.4
2018-Feb-10 11:30N 34°36' E 134°54'611.4
2018-Feb-10 11:00N 34°37' E 135°01'611.4
2018-Feb-10 10:30N 34°36' E 135°08'612.4
2018-Feb-10 10:00N 34°36' E 135°15'612.1
2018-Feb-10 09:30N 34°36' E 135°23'4 8.3
2018-Feb-10 08:59N 34°34' E 135°27'0 0.0
2018-Feb-10 08:26N 34°34' E 135°27'0 0.0
2018-Feb-10 07:58N 34°34' E 135°27'0 0.0
2018-Feb-10 07:28N 34°34' E 135°27'0 0.0
2018-Feb-10 06:58N 34°34' E 135°27'0 0.0
2018-Feb-10 06:29N 34°34' E 135°27'0 0.0
2018-Feb-10 05:58N 34°34' E 135°27'0 0.0
2018-Feb-10 05:28N 34°34' E 135°27'0 0.0
2018-Feb-10 04:58N 34°34' E 135°27'0 0.0
2018-Feb-10 04:28N 34°34' E 135°27'0 0.0
2018-Feb-10 03:58N 34°34' E 135°27'0 0.0
2018-Feb-10 03:28N 34°34' E 135°27'0 0.0
2018-Feb-10 02:58N 34°34' E 135°27'0 0.0
2018-Feb-10 02:28N 34°34' E 135°27'0 0.0
2018-Feb-10 02:00N 34°34' E 135°27'2 3.4
2018-Feb-10 01:30N 34°35' E 135°26'3 5.0
2018-Feb-10 01:00N 34°36' E 135°23'0 0.1
2018-Feb-10 00:27N 34°36' E 135°23'2 5.5
2018-Feb-10 00:00N 34°36' E 135°20'510.6
2018-Feb-09 23:29N 34°35' E 135°13'510.7
2018-Feb-09 23:00N 34°35' E 135°07'210.3
2018-Feb-09 22:46N 34°35' E 135°04'  
Track history (hours):
 
Tides and Currents Weather Stations Pressure Air Temp Water Temp Dewpoint Dewpoint Depression Visibility Wind Speed Wind Dir Waves Ship Positions

Tukiboshimaru

Last reported at 2018-Feb-19 21:00 UTC. Time now 2018-Feb-19 21:17 UTC.
Position N 34°04' E 132°38'.

Length 84 m.

Type: Ship. MMSI: 431301596.

Date/timePositionNaut miles runAvg speedWind from/ knotsBaromVisibWave heightAir tempDewpointWater temp
2018-Feb-19 21:00N 34°04' E 132°38'10411.8
2018-Feb-19 12:12N 34°31' E 134°40'212.3
2018-Feb-19 12:00N 34°32' E 134°42'612.4
2018-Feb-19 11:29N 34°35' E 134°50'612.7
2018-Feb-19 11:00N 34°37' E 134°57'510.5
2018-Feb-19 10:30N 34°36' E 135°03'611.8
2018-Feb-19 10:00N 34°36' E 135°10'611.9
2018-Feb-19 09:30N 34°36' E 135°17'611.6
2018-Feb-19 09:00N 34°36' E 135°24'3 5.1
2018-Feb-19 08:25N 34°34' E 135°27'0 0.0
2018-Feb-19 07:55N 34°34' E 135°27'0 0.0
2018-Feb-19 07:28N 34°34' E 135°27'0 0.0
2018-Feb-19 06:58N 34°34' E 135°27'0 0.0
2018-Feb-19 06:28N 34°34' E 135°27'0 0.0
2018-Feb-19 05:55N 34°34' E 135°27'0 0.0
2018-Feb-19 05:25N 34°34' E 135°27'0 0.0
2018-Feb-19 04:55N 34°34' E 135°27'0 0.0
2018-Feb-19 04:28N 34°34' E 135°27'0 0.0
2018-Feb-19 03:58N 34°34' E 135°27'0 0.0
2018-Feb-19 03:28N 34°34' E 135°27'0 0.0
2018-Feb-19 02:58N 34°34' E 135°27'0 0.0
2018-Feb-19 02:28N 34°34' E 135°27'0 0.0
2018-Feb-19 01:58N 34°34' E 135°27'0 0.0
2018-Feb-19 01:28N 34°34' E 135°27'0 0.0
2018-Feb-19 00:58N 34°34' E 135°27'0 0.0
2018-Feb-19 00:28N 34°34' E 135°27'3 6.1
2018-Feb-19 00:00N 34°36' E 135°24'1 2.4
2018-Feb-18 23:30N 34°36' E 135°23'0 0.1
2018-Feb-18 23:00N 34°36' E 135°23'1 2.6
2018-Feb-18 22:30N 34°36' E 135°21'611.3
2018-Feb-18 22:00N 34°35' E 135°15'611.8
2018-Feb-18 21:30N 34°35' E 135°08'613.0
2018-Feb-18 21:00N 34°37' E 135°00'713.9
2018-Feb-18 20:31N 34°35' E 134°52'712.8
2018-Feb-18 20:00N 34°32' E 134°45'612.1
2018-Feb-18 19:30N 34°30' E 134°38'611.8
2018-Feb-18 19:00N 34°28' E 134°32'9511.6
2018-Feb-18 10:53N 34°05' E 132°41'11 5.6
2018-Feb-18 08:53N 34°12' E 132°30'2 6.4
2018-Feb-18 08:30N 34°14' E 132°32'0 0.0
2018-Feb-18 07:59N 34°14' E 132°32'0 0.0
2018-Feb-18 07:29N 34°14' E 132°32'0 0.0
2018-Feb-18 06:59N 34°14' E 132°32'0 0.0
2018-Feb-18 06:26N 34°14' E 132°32'0 0.0
2018-Feb-18 05:59N 34°14' E 132°32'0 0.0
2018-Feb-18 05:26N 34°14' E 132°32'0 0.0
2018-Feb-18 04:59N 34°14' E 132°32'0 0.0
2018-Feb-18 04:29N 34°14' E 132°32'0 0.0
2018-Feb-18 03:59N 34°14' E 132°32'0 0.0
2018-Feb-18 03:29N 34°14' E 132°32'0 0.0
2018-Feb-18 02:59N 34°14' E 132°32'0 0.0
2018-Feb-18 02:29N 34°14' E 132°32'0 0.0
2018-Feb-18 01:59N 34°14' E 132°32'0 0.0
2018-Feb-18 01:29N 34°14' E 132°32'0 0.0
2018-Feb-18 00:59N 34°14' E 132°32'0 0.0
2018-Feb-18 00:29N 34°14' E 132°32'0 0.0
2018-Feb-17 23:59N 34°14' E 132°32'0 0.0
2018-Feb-17 23:28N 34°14' E 132°32'2 5.2
2018-Feb-17 22:59N 34°12' E 132°30'710.5
2018-Feb-17 22:16N 34°05' E 132°27'512.5
2018-Feb-17 21:54N 34°02' E 132°31'511.8
2018-Feb-17 21:30N 34°04' E 132°36'10711.3
2018-Feb-17 12:02N 34°31' E 134°42'011.4
2018-Feb-17 12:00N 34°32' E 134°42'712.4
2018-Feb-17 11:25N 34°34' E 134°50'613.3
2018-Feb-17 10:59N 34°37' E 134°56'611.8
2018-Feb-17 10:30N 34°36' E 135°03'611.8
2018-Feb-17 10:00N 34°36' E 135°11'511.1
2018-Feb-17 09:30N 34°36' E 135°17'611.1
2018-Feb-17 09:00N 34°36' E 135°24'3 6.4
2018-Feb-17 08:29N 34°34' E 135°27'0 0.0
2018-Feb-17 07:58N 34°34' E 135°27'0 0.0
2018-Feb-17 07:28N 34°34' E 135°27'0 0.0
2018-Feb-17 06:58N 34°34' E 135°27'0 0.0
2018-Feb-17 06:28N 34°34' E 135°27'0 0.0
2018-Feb-17 05:58N 34°34' E 135°27'0 0.0
2018-Feb-17 05:28N 34°34' E 135°27'0 0.0
2018-Feb-17 04:58N 34°34' E 135°27'0 0.0
2018-Feb-17 04:28N 34°34' E 135°27'0 0.0
2018-Feb-17 03:58N 34°34' E 135°27'0 0.0
2018-Feb-17 03:28N 34°34' E 135°27'0 0.0
2018-Feb-17 02:58N 34°34' E 135°27'0 0.0
2018-Feb-17 02:28N 34°34' E 135°27'0 0.0
2018-Feb-17 01:58N 34°34' E 135°27'0 0.0
2018-Feb-17 01:28N 34°34' E 135°27'0 0.2
2018-Feb-17 01:00N 34°34' E 135°27'1 1.3
2018-Feb-17 00:30N 34°35' E 135°27'1 1.6
2018-Feb-17 00:00N 34°35' E 135°26'3 5.7
2018-Feb-16 23:30N 34°36' E 135°23'4 8.3
2018-Feb-16 23:00N 34°36' E 135°18'510.9
2018-Feb-16 22:30N 34°35' E 135°11'611.3
2018-Feb-16 22:00N 34°35' E 135°04'4 8.6
2018-Feb-16 21:30N 34°37' E 134°60'611.3
2018-Feb-16 21:00N 34°35' E 134°53'611.7
2018-Feb-16 20:30N 34°33' E 134°47'611.6
2018-Feb-16 20:00N 34°30' E 134°40'611.6
2018-Feb-16 19:30N 34°28' E 134°34'9611.8
2018-Feb-16 11:19N 34°05' E 132°41'412.1
2018-Feb-16 10:59N 34°04' E 132°36'9 5.8
2018-Feb-16 09:25N 34°11' E 132°30'4 8.9
2018-Feb-16 09:00N 34°14' E 132°32'0 0.3
2018-Feb-16 08:29N 34°14' E 132°32'0 0.0
2018-Feb-16 07:56N 34°14' E 132°32'0 0.0
2018-Feb-16 07:29N 34°14' E 132°32'0 0.0
2018-Feb-16 06:59N 34°14' E 132°32'0 0.0
2018-Feb-16 06:29N 34°14' E 132°32'0 0.0
2018-Feb-16 05:59N 34°14' E 132°32'0 0.0
2018-Feb-16 05:29N 34°14' E 132°32'0 0.0
2018-Feb-16 04:53N 34°14' E 132°32'0 0.0
2018-Feb-16 04:26N 34°14' E 132°32'0 0.0
2018-Feb-16 03:59N 34°14' E 132°32'0 0.0
2018-Feb-16 03:23N 34°14' E 132°32'0 0.0
2018-Feb-16 02:56N 34°14' E 132°32'0 0.0
2018-Feb-16 02:29N 34°14' E 132°32'0 0.0
2018-Feb-16 01:56N 34°14' E 132°32'0 0.0
2018-Feb-16 01:29N 34°14' E 132°32'0 0.0
2018-Feb-16 00:59N 34°14' E 132°32'0 0.0
2018-Feb-16 00:29N 34°14' E 132°32'0 0.0
2018-Feb-15 23:53N 34°14' E 132°32'0 0.0
2018-Feb-15 23:29N 34°14' E 132°32'0 0.0
2018-Feb-15 22:58N 34°14' E 132°32'3 7.1
2018-Feb-15 22:30N 34°11' E 132°30'610.4
2018-Feb-15 21:53N 34°05' E 132°27'512.5
2018-Feb-15 21:30N 34°02' E 132°31'611.7
2018-Feb-15 21:00N 34°04' E 132°38'10611.3
2018-Feb-15 11:36N 34°32' E 134°42'112.7
2018-Feb-15 11:29N 34°32' E 134°44'713.2
2018-Feb-15 10:59N 34°35' E 134°51'713.7
2018-Feb-15 10:30N 34°37' E 134°58'713.0
2018-Feb-15 09:58N 34°36' E 135°07'612.1
2018-Feb-15 09:30N 34°36' E 135°14'612.1
2018-Feb-15 09:00N 34°37' E 135°21'510.2
2018-Feb-15 08:30N 34°35' E 135°27'1 1.3
2018-Feb-15 08:00N 34°34' E 135°27'0 0.0
2018-Feb-15 07:30N 34°34' E 135°27'0 0.0
2018-Feb-15 06:57N 34°34' E 135°27'0 0.0
2018-Feb-15 06:24N 34°34' E 135°27'0 0.0
2018-Feb-15 05:57N 34°34' E 135°27'0 0.0
2018-Feb-15 05:30N 34°34' E 135°27'0 0.0
2018-Feb-15 05:00N 34°34' E 135°27'0 0.0
2018-Feb-15 04:30N 34°34' E 135°27'0 0.0
2018-Feb-15 03:57N 34°34' E 135°27'0 0.0
2018-Feb-15 03:30N 34°34' E 135°27'0 0.0
2018-Feb-15 03:00N 34°34' E 135°27'0 0.0
2018-Feb-15 02:30N 34°34' E 135°27'0 0.0
2018-Feb-15 02:00N 34°34' E 135°27'0 0.0
2018-Feb-15 01:30N 34°34' E 135°27'0 0.0
2018-Feb-15 01:00N 34°34' E 135°27'0 0.0
2018-Feb-15 00:27N 34°34' E 135°27'0 0.1
2018-Feb-14 23:59N 34°34' E 135°27'3 6.3
2018-Feb-14 23:30N 34°36' E 135°24'510.6
2018-Feb-14 23:00N 34°36' E 135°18'611.2
2018-Feb-14 22:30N 34°35' E 135°11'510.8
2018-Feb-14 22:00N 34°35' E 135°04'4 8.1
2018-Feb-14 21:30N 34°37' E 135°00'5 9.0
2018-Feb-14 21:00N 34°35' E 134°55'510.6
2018-Feb-14 20:30N 34°33' E 134°49'611.1
2018-Feb-14 20:00N 34°31' E 134°43'611.3
2018-Feb-14 19:30N 34°29' E 134°37'611.4
2018-Feb-14 19:00N 34°27' E 134°30'611.4
2018-Feb-14 18:30N 34°25' E 134°24'8811.6
2018-Feb-14 10:56N 34°05' E 132°41'10 5.9
2018-Feb-14 09:17N 34°09' E 132°30'310.5
2018-Feb-14 09:00N 34°12' E 132°30'3 5.3
2018-Feb-14 08:28N 34°14' E 132°32'0 0.0
2018-Feb-14 07:58N 34°14' E 132°32'0 0.0
2018-Feb-14 07:28N 34°14' E 132°32'0 0.0
2018-Feb-14 06:58N 34°14' E 132°32'0 0.0
2018-Feb-14 06:25N 34°14' E 132°32'0 0.0
2018-Feb-14 05:58N 34°14' E 132°32'0 0.0
2018-Feb-14 05:28N 34°14' E 132°32'0 0.0
2018-Feb-14 04:58N 34°14' E 132°32'0 0.0
2018-Feb-14 04:25N 34°14' E 132°32'0 0.0
2018-Feb-14 03:58N 34°14' E 132°32'0 0.0
2018-Feb-14 03:28N 34°14' E 132°32'0 0.0
2018-Feb-14 02:58N 34°14' E 132°32'0 0.0
2018-Feb-14 02:25N 34°14' E 132°32'0 0.0
2018-Feb-14 01:58N 34°14' E 132°32'0 0.0
2018-Feb-14 01:28N 34°14' E 132°32'0 0.0
2018-Feb-14 00:58N 34°14' E 132°32'0 0.0
2018-Feb-14 00:28N 34°14' E 132°32'0 0.0
2018-Feb-13 23:55N 34°14' E 132°32'0 0.0
2018-Feb-13 23:28N 34°14' E 132°32'0 0.0
2018-Feb-13 22:52N 34°14' E 132°32'0 0.0
2018-Feb-13 22:28N 34°14' E 132°32'0 0.0
2018-Feb-13 21:58N 34°14' E 132°32'0 0.1
2018-Feb-13 21:30N 34°14' E 132°32'4 8.7
2018-Feb-13 21:00N 34°10' E 132°29'610.2
2018-Feb-13 20:28N 34°05' E 132°27'710.7
2018-Feb-13 19:48N 34°03' E 132°35'311.9
2018-Feb-13 19:30N 34°05' E 132°39'10711.1
2018-Feb-13 09:54N 34°33' E 134°44'511.8
2018-Feb-13 09:30N 34°34' E 134°49'612.1
2018-Feb-13 09:00N 34°37' E 134°56'510.8
2018-Feb-13 08:30N 34°37' E 135°02'611.5
2018-Feb-13 08:00N 34°36' E 135°09'611.2
2018-Feb-13 07:30N 34°37' E 135°16'611.3
2018-Feb-13 07:00N 34°36' E 135°23'4 7.9
2018-Feb-13 06:28N 34°34' E 135°27'0 0.0
2018-Feb-13 05:57N 34°34' E 135°27'0 0.0
2018-Feb-13 05:30N 34°34' E 135°27'0 0.0
2018-Feb-13 05:00N 34°34' E 135°27'0 0.0
2018-Feb-13 04:29N 34°34' E 135°27'0 0.0
2018-Feb-13 04:00N 34°34' E 135°27'0 0.0
2018-Feb-13 03:30N 34°34' E 135°27'0 0.0
2018-Feb-13 03:00N 34°34' E 135°27'0 0.0
2018-Feb-13 02:30N 34°34' E 135°27'0 0.0
2018-Feb-13 02:00N 34°34' E 135°27'0 0.0
2018-Feb-13 01:30N 34°34' E 135°27'0 0.0
2018-Feb-13 00:59N 34°34' E 135°27'0 0.0
2018-Feb-13 00:30N 34°34' E 135°27'0 0.0
2018-Feb-13 00:00N 34°34' E 135°27'0 0.0
2018-Feb-12 23:29N 34°34' E 135°27'0 0.8
2018-Feb-12 23:00N 34°34' E 135°27'4 8.9
2018-Feb-12 22:30N 34°36' E 135°22'611.2
2018-Feb-12 22:00N 34°36' E 135°15'611.2
2018-Feb-12 21:30N 34°35' E 135°09'5 9.8
2018-Feb-12 20:59N 34°36' E 135°03'4 7.8
2018-Feb-12 20:30N 34°37' E 134°58'510.0
2018-Feb-12 20:00N 34°35' E 134°52'610.8
2018-Feb-12 19:29N 34°33' E 134°46'511.0
2018-Feb-12 19:00N 34°30' E 134°40'611.3
2018-Feb-12 18:30N 34°28' E 134°34'9611.5
2018-Feb-12 10:07N 34°05' E 132°41'112.1
2018-Feb-12 10:00N 34°05' E 132°39'11 5.5
2018-Feb-12 08:05N 34°13' E 132°31'1 8.9
2018-Feb-12 07:59N 34°13' E 132°31'1 1.7
2018-Feb-12 07:28N 34°14' E 132°32'0 0.0
2018-Feb-12 06:58N 34°14' E 132°32'0 0.0
2018-Feb-12 06:28N 34°14' E 132°32'0 0.0
2018-Feb-12 05:58N 34°14' E 132°32'0 0.0
2018-Feb-12 05:25N 34°14' E 132°32'0 0.0
2018-Feb-12 04:58N 34°14' E 132°32'0 0.0
2018-Feb-12 04:28N 34°14' E 132°32'0 0.0
2018-Feb-12 03:58N 34°14' E 132°32'0 0.0
2018-Feb-12 03:28N 34°14' E 132°32'0 0.0
2018-Feb-12 02:58N 34°14' E 132°32'0 0.0
2018-Feb-12 02:29N 34°14' E 132°32'0 0.0
2018-Feb-12 01:58N 34°14' E 132°32'0 0.0
2018-Feb-12 01:28N 34°14' E 132°32'0 0.0
2018-Feb-12 00:58N 34°14' E 132°32'0 0.0
2018-Feb-12 00:28N 34°14' E 132°32'0 0.0
2018-Feb-11 23:58N 34°14' E 132°32'0 0.0
2018-Feb-11 23:28N 34°14' E 132°32'0 0.0
2018-Feb-11 22:58N 34°14' E 132°32'0 0.0
2018-Feb-11 22:28N 34°14' E 132°32'0 0.8
2018-Feb-11 21:59N 34°14' E 132°33'1 1.2
2018-Feb-11 21:23N 34°14' E 132°33'0 0.0
2018-Feb-11 20:53N 34°14' E 132°33'0 0.0
2018-Feb-11 20:26N 34°14' E 132°33'0 0.0
2018-Feb-11 19:56N 34°14' E 132°33'0 0.0
2018-Feb-11 19:14N 34°14' E 132°33'0 0.0
2018-Feb-11 18:56N 34°14' E 132°33'0 0.0
2018-Feb-11 18:20N 34°14' E 132°33'0 0.0
2018-Feb-11 17:59N 34°14' E 132°33'0 0.0
2018-Feb-11 17:29N 34°14' E 132°33'0 0.0
2018-Feb-11 16:56N 34°14' E 132°33'0 0.0
2018-Feb-11 16:26N 34°14' E 132°33'0 0.0
2018-Feb-11 15:56N 34°14' E 132°33'0 0.0
2018-Feb-11 15:26N 34°14' E 132°33'0 0.0
2018-Feb-11 14:56N 34°14' E 132°33'0 0.0
2018-Feb-11 14:26N 34°14' E 132°33'0 0.0
2018-Feb-11 13:56N 34°14' E 132°33'0 0.0
2018-Feb-11 13:26N 34°14' E 132°33'0 0.0
2018-Feb-11 12:50N 34°14' E 132°33'0 0.0
2018-Feb-11 12:20N 34°14' E 132°33'0 0.0
2018-Feb-11 11:56N 34°14' E 132°33'0 0.0
2018-Feb-11 11:26N 34°14' E 132°33'0 0.0
2018-Feb-11 10:56N 34°14' E 132°33'0 0.0
2018-Feb-11 10:20N 34°14' E 132°33'0 0.0
2018-Feb-11 09:56N 34°14' E 132°33'0 0.0
2018-Feb-11 09:26N 34°14' E 132°33'0 0.0
2018-Feb-11 08:56N 34°14' E 132°33'0 0.0
2018-Feb-11 08:29N 34°14' E 132°33'0 0.0
2018-Feb-11 07:56N 34°14' E 132°33'0 0.0
2018-Feb-11 05:59N 34°14' E 132°33'0 0.0
2018-Feb-11 05:05N 34°14' E 132°33'0 0.0
2018-Feb-11 02:32N 34°14' E 132°33'0 0.0
2018-Feb-11 02:26N 34°14' E 132°33'0 0.0
2018-Feb-11 01:50N 34°14' E 132°33'0 0.0
2018-Feb-11 01:14N 34°14' E 132°33'0 0.1
2018-Feb-11 00:49N 34°14' E 132°33'2 5.0
2018-Feb-11 00:29N 34°13' E 132°32'510.8
2018-Feb-10 23:59N 34°08' E 132°30'6 7.8
2018-Feb-10 23:10N 34°02' E 132°31'310.9
2018-Feb-10 22:53N 34°03' E 132°35'511.5
2018-Feb-10 22:29N 34°05' E 132°40'10210.4
2018-Feb-10 12:44N 34°31' E 134°39'311.3
2018-Feb-10 12:28N 34°32' E 134°42'511.3
2018-Feb-10 12:00N 34°34' E 134°48'611.4
2018-Feb-10 11:30N 34°36' E 134°54'611.4
2018-Feb-10 11:00N 34°37' E 135°01'611.4
2018-Feb-10 10:30N 34°36' E 135°08'612.4
2018-Feb-10 10:00N 34°36' E 135°15'612.1
2018-Feb-10 09:30N 34°36' E 135°23'4 8.3
2018-Feb-10 08:59N 34°34' E 135°27'0 0.0
2018-Feb-10 08:26N 34°34' E 135°27'0 0.0
2018-Feb-10 07:58N 34°34' E 135°27'0 0.0
2018-Feb-10 07:28N 34°34' E 135°27'0 0.0
2018-Feb-10 06:58N 34°34' E 135°27'0 0.0
2018-Feb-10 06:29N 34°34' E 135°27'0 0.0
2018-Feb-10 05:58N 34°34' E 135°27'0 0.0
2018-Feb-10 05:28N 34°34' E 135°27'0 0.0
2018-Feb-10 04:58N 34°34' E 135°27'0 0.0
2018-Feb-10 04:28N 34°34' E 135°27'0 0.0
2018-Feb-10 03:58N 34°34' E 135°27'0 0.0
2018-Feb-10 03:28N 34°34' E 135°27'0 0.0
2018-Feb-10 02:58N 34°34' E 135°27'0 0.0
2018-Feb-10 02:28N 34°34' E 135°27'0 0.0
2018-Feb-10 02:00N 34°34' E 135°27'2 3.4
2018-Feb-10 01:30N 34°35' E 135°26'3 5.0
2018-Feb-10 01:00N 34°36' E 135°23'0 0.1
2018-Feb-10 00:27N 34°36' E 135°23'2 5.5
2018-Feb-10 00:00N 34°36' E 135°20'510.6
2018-Feb-09 23:29N 34°35' E 135°13'510.7
2018-Feb-09 23:00N 34°35' E 135°07'210.3
2018-Feb-09 22:46N 34°35' E 135°04'  

Dump ship's entire track history